Time;durP1;ratioP1;P1;durP2;ratioP2;P2;SDS_P1;SDS_P2;PMS_P1;PMS_P2;Temp;Humidity;BMP_temperature;BMP_pressure;BME280_temperature;BME280_humidity;BME280_pressure;Samples;Min_cycle;Max_cycle;Signal;HPM_P1;HPM_P2
2023/01/22 00:00:29;;;;;;;96.57;40.17;;;;;;;-3.00;100.00;103402.91;4992289;28;20117;-60
2023/01/22 00:02:54;;;;;;;92.00;41.08;;;;;;;-3.02;100.00;103390.72;4991929;28;20084;-59
2023/01/22 00:05:20;;;;;;;102.38;40.13;;;;;;;-3.09;100.00;103383.38;4992357;28;20035;-59
2023/01/22 00:07:45;;;;;;;99.13;41.60;;;;;;;-3.06;100.00;103397.34;4974811;28;20030;-59
2023/01/22 00:10:11;;;;;;;100.95;41.45;;;;;;;-3.55;100.00;103320.34;4992623;28;20034;-59
2023/01/22 00:12:37;;;;;;;97.30;41.42;;;;;;;-3.64;100.00;103307.78;4992116;28;20042;-59
2023/01/22 00:15:02;;;;;;;90.75;38.95;;;;;;;-3.19;100.00;103397.38;4992088;28;20500;-60
2023/01/22 00:17:28;;;;;;;94.22;39.25;;;;;;;-3.29;100.00;103373.50;4975093;28;20065;-59
2023/01/22 00:19:54;;;;;;;98.65;40.17;;;;;;;-3.72;100.00;103295.22;4992126;28;20135;-60
2023/01/22 00:22:19;;;;;;;97.60;39.88;;;;;;;-3.22;100.00;103389.47;4958943;28;20466;-62
2023/01/22 00:24:45;;;;;;;97.07;41.17;;;;;;;-3.67;100.00;103310.16;4992461;28;20035;-59
2023/01/22 00:27:10;;;;;;;88.43;38.75;;;;;;;-3.21;100.00;103386.06;4992314;28;20433;-59
2023/01/22 00:29:35;;;;;;;83.32;36.33;;;;;;;-3.14;100.00;103389.94;4992218;28;20043;-60
2023/01/22 00:32:01;;;;;;;74.00;33.75;;;;;;;-3.56;100.00;103293.69;4974451;28;20114;-59
2023/01/22 00:34:26;;;;;;;74.72;32.85;;;;;;;-3.36;100.00;103292.41;4974572;28;20066;-59
2023/01/22 00:36:52;;;;;;;68.75;32.40;;;;;;;-2.64;100.00;103386.25;4974001;28;20037;-59
2023/01/22 00:39:17;;;;;;;67.35;33.20;;;;;;;-3.31;100.00;103226.63;4974329;28;20174;-59
2023/01/22 00:41:42;;;;;;;79.22;33.55;;;;;;;-2.15;100.00;103384.06;4974839;28;20133;-58
2023/01/22 00:44:08;;;;;;;82.93;35.88;;;;;;;-2.00;100.00;103383.28;4992112;28;20382;-59
2023/01/22 00:46:33;;;;;;;68.03;32.35;;;;;;;-2.07;100.00;103316.59;4974690;28;20538;-59
2023/01/22 00:48:59;;;;;;;58.53;31.83;;;;;;;-2.19;100.00;103279.81;4974861;28;20061;-59
2023/01/22 00:51:24;;;;;;;55.88;31.23;;;;;;;-1.96;100.00;103299.19;4991906;28;20030;-60
2023/01/22 00:53:49;;;;;;;63.40;32.15;;;;;;;-1.45;100.00;103361.50;4991906;28;20041;-59
2023/01/22 00:56:15;;;;;;;55.65;29.88;;;;;;;-1.26;100.00;103392.78;4992169;28;20509;-60
2023/01/22 00:58:41;;;;;;;55.47;29.63;;;;;;;-1.21;100.00;103380.97;4958592;28;20033;-60
2023/01/22 01:01:06;;;;;;;53.95;30.25;;;;;;;-1.12;100.00;103367.69;4974524;28;20046;-60
2023/01/22 01:03:33;;;;;;;52.80;29.98;;;;;;;-1.19;100.00;103350.03;4992102;28;20039;-59
2023/01/22 01:06:00;;;;;;;57.30;30.00;;;;;;;-1.48;100.00;103285.53;4991817;28;20041;-60
2023/01/22 01:08:27;;;;;;;45.33;27.05;;;;;;;-0.98;100.00;103373.59;4958573;28;20520;-60
2023/01/22 01:10:58;;;;;;;47.00;27.17;;;;;;;-1.01;100.00;103358.81;4976538;28;20030;-59
2023/01/22 01:13:24;;;;;;;54.70;27.60;;;;;;;-1.43;100.00;103273.78;4978427;28;20037;-60
2023/01/22 01:15:57;;;;;;;48.92;27.48;;;;;;;-0.92;100.00;103366.19;4978319;28;20030;-59
2023/01/22 01:18:22;;;;;;;44.13;25.85;;;;;;;-1.34;100.00;103289.75;4995991;28;20061;-62
2023/01/22 01:20:53;;;;;;;48.10;27.45;;;;;;;-1.27;100.00;103297.97;4995601;28;20461;-59
2023/01/22 01:23:18;;;;;;;43.20;25.75;;;;;;;-0.83;100.00;103369.25;4995881;28;20108;-59
2023/01/22 01:25:43;;;;;;;49.40;27.75;;;;;;;-0.81;100.00;103368.53;4995875;28;20482;-61
2023/01/22 01:28:09;;;;;;;48.78;26.90;;;;;;;-0.83;100.00;103361.50;4995450;28;20533;-60
2023/01/22 01:30:34;;;;;;;47.80;26.83;;;;;;;-0.81;100.00;103362.47;4978096;28;20513;-60
2023/01/22 01:32:59;;;;;;;43.70;25.73;;;;;;;-0.84;100.00;103362.31;4977813;28;20040;-59
2023/01/22 01:35:25;;;;;;;45.00;26.13;;;;;;;-1.30;100.00;103278.81;4995146;28;20045;-60
2023/01/22 01:37:52;;;;;;;35.78;23.88;;;;;;;-0.80;100.00;103351.31;4995454;28;20038;-58
2023/01/22 01:40:17;;;;;;;40.00;23.15;;;;;;;-1.13;100.00;103290.94;4995305;28;20038;-61
2023/01/22 01:42:43;;;;;;;38.42;23.38;;;;;;;-0.79;100.00;103358.28;4995024;28;20122;-60
2023/01/22 01:45:29;;;;;;;37.33;23.85;;;;;;;-0.71;100.00;103346.66;4977426;28;20536;-60
2023/01/22 01:48:13;;;;;;;40.80;24.48;;;;;;;-0.71;100.00;103344.06;4994655;28;20034;-60
2023/01/22 01:50:40;;;;;;;37.30;23.48;;;;;;;-0.69;100.00;103345.91;4977730;28;20481;-59
2023/01/22 01:53:07;;;;;;;33.80;21.45;;;;;;;-1.00;100.00;103283.06;4994850;28;20438;-60
2023/01/22 01:55:33;;;;;;;37.78;23.75;;;;;;;-1.47;100.00;103194.34;4961567;28;20030;-59
2023/01/22 01:58:03;;;;;;;38.35;23.77;;;;;;;-1.06;100.00;103259.47;4977204;28;20474;-60
2023/01/22 02:00:31;;;;;;;37.85;24.00;;;;;;;-0.56;100.00;103329.34;4977575;28;20168;-59
2023/01/22 02:02:57;;;;;;;29.40;21.10;;;;;;;-0.96;100.00;103245.34;4977458;28;20076;-60
2023/01/22 02:05:23;;;;;;;35.20;22.60;;;;;;;-0.45;100.00;103325.63;4977396;28;20062;-59
2023/01/22 02:07:48;;;;;;;31.38;21.50;;;;;;;-0.45;100.00;103337.66;4961355;28;20125;-59
2023/01/22 02:10:14;;;;;;;29.15;20.38;;;;;;;-0.97;100.00;103230.63;4994798;28;20041;-60
2023/01/22 02:12:39;;;;;;;30.58;19.88;;;;;;;-0.41;100.00;103324.97;4960767;28;20490;-59
2023/01/22 02:15:05;;;;;;;32.08;21.23;;;;;;;-0.41;100.00;103319.81;4994721;28;20034;-60
2023/01/22 02:17:31;;;;;;;29.90;18.98;;;;;;;-0.84;100.00;103241.66;4977722;28;20034;-58
2023/01/22 02:19:56;;;;;;;26.75;19.38;;;;;;;-0.65;100.00;103285.78;4995140;28;20088;-59
2023/01/22 02:22:28;;;;;;;26.50;19.13;;;;;;;-0.32;100.00;103309.91;4993613;28;20058;-59
2023/01/22 02:24:54;;;;;;;25.92;17.52;;;;;;;-0.30;100.00;103310.88;4976939;28;20030;-60
2023/01/22 02:27:19;;;;;;;23.98;18.08;;;;;;;-0.66;100.00;103244.31;4994367;28;20375;-59
2023/01/22 02:29:44;;;;;;;27.30;17.67;;;;;;;-0.24;100.00;103302.53;4994491;28;20038;-58
2023/01/22 02:32:10;;;;;;;23.67;16.70;;;;;;;-0.23;100.00;103310.38;4994328;28;20117;-62
2023/01/22 02:34:36;;;;;;;24.73;17.35;;;;;;;-0.24;100.00;103305.13;4994348;28;20038;-59
2023/01/22 02:37:01;;;;;;;22.63;17.20;;;;;;;-0.19;100.00;103301.97;4976926;28;21169;-58
2023/01/22 02:39:27;;;;;;;21.85;17.00;;;;;;;-0.17;100.00;103296.84;4976402;28;20065;-59
2023/01/22 02:41:52;;;;;;;25.80;17.23;;;;;;;-0.20;100.00;103291.50;4994034;28;20041;-59
2023/01/22 02:44:18;;;;;;;24.73;16.75;;;;;;;-0.52;100.00;103239.84;4976971;28;20046;-60
2023/01/22 02:46:43;;;;;;;21.00;16.40;;;;;;;-0.46;100.00;103259.16;4994188;28;20046;-59
2023/01/22 02:49:08;;;;;;;21.58;16.40;;;;;;;-0.26;100.00;103297.28;4994016;28;20425;-60
2023/01/22 02:51:34;;;;;;;19.13;15.57;;;;;;;-0.74;100.00;103217.19;4994101;28;20389;-59
2023/01/22 02:53:59;;;;;;;21.00;15.20;;;;;;;-0.30;100.00;103300.53;4993767;28;20462;-59
2023/01/22 02:56:24;;;;;;;20.98;14.73;;;;;;;-0.32;100.00;103311.63;4993765;28;20063;-58
2023/01/22 02:58:50;;;;;;;19.70;14.75;;;;;;;-0.85;100.00;103214.06;4993397;28;20038;-60
2023/01/22 03:01:19;;;;;;;21.73;15.00;;;;;;;-0.58;100.00;103262.00;4993803;28;20042;-59
2023/01/22 03:03:52;;;;;;;19.80;15.20;;;;;;;-0.39;100.00;103317.28;4993735;28;20038;-60
2023/01/22 03:06:21;;;;;;;19.85;14.40;;;;;;;-0.89;100.00;103225.03;4993540;28;20061;-59
2023/01/22 03:08:47;;;;;;;19.80;15.13;;;;;;;-0.93;100.00;103210.16;4993423;28;20107;-61
2023/01/22 03:11:13;;;;;;;17.77;13.00;;;;;;;-0.41;100.00;103308.56;4993342;28;20042;-59
2023/01/22 03:21:50;;;;;;;16.92;13.85;;;;;;;-0.37;100.00;103293.25;4993435;28;20085;-60
2023/01/22 03:24:15;;;;;;;18.05;14.40;;;;;;;-0.64;100.00;103228.06;4993503;28;20070;-60
2023/01/22 03:26:41;;;;;;;17.23;13.60;;;;;;;-0.59;100.00;103239.56;4993286;28;20038;-59
2023/01/22 03:29:06;;;;;;;18.80;14.18;;;;;;;-0.22;100.00;103299.22;4993342;28;20030;-59
2023/01/22 03:31:31;;;;;;;17.50;13.13;;;;;;;-0.50;100.00;103235.66;4993087;28;20539;-59
2023/01/22 03:33:57;;;;;;;16.85;12.48;;;;;;;-0.19;100.00;103294.19;4992436;28;20030;-59
2023/01/22 03:36:22;;;;;;;15.98;13.45;;;;;;;-0.62;100.00;103203.19;4992942;28;20498;-59
2023/01/22 03:38:47;;;;;;;17.20;14.05;;;;;;;-0.12;100.00;103298.00;4992817;28;20054;-61
2023/01/22 03:41:14;;;;;;;16.58;12.48;;;;;;;-0.11;100.00;103276.44;4993201;28;20074;-59
2023/01/22 03:43:40;;;;;;;15.95;12.60;;;;;;;-0.32;100.00;103234.84;4992669;28;20109;-59
2023/01/22 03:46:11;;;;;;;16.58;12.27;;;;;;;-0.03;100.00;103288.94;4992925;28;20590;-59
2023/01/22 03:48:37;;;;;;;14.15;11.82;;;;;;;-0.37;100.00;103205.28;4992762;28;20027;-60
2023/01/22 03:51:13;;;;;;;12.05;10.75;;;;;;;0.09;100.00;103286.06;4992941;28;20038;-59
2023/01/22 03:53:39;;;;;;;13.15;10.68;;;;;;;0.04;100.00;103266.84;4975374;28;20478;-59
2023/01/22 03:56:07;;;;;;;13.98;11.23;;;;;;;0.06;100.00;103269.53;4975376;28;20120;-59
2023/01/22 03:58:33;;;;;;;13.82;11.88;;;;;;;0.11;100.00;103281.00;4975367;28;20559;-60
2023/01/22 04:01:06;;;;;;;14.05;10.88;;;;;;;0.12;100.00;103285.38;4975361;28;20054;-60
2023/01/22 04:03:32;;;;;;;12.30;10.68;;;;;;;0.13;100.00;103277.66;4975263;28;20413;-61
2023/01/22 04:06:00;;;;;;;15.07;10.80;;;;;;;0.05;100.00;103276.41;4975397;28;20038;-60
2023/01/22 04:08:30;;;;;;;12.80;10.57;;;;;;;0.11;100.00;103289.66;4975519;28;20045;-60
2023/01/22 04:10:56;;;;;;;14.02;10.48;;;;;;;-0.03;100.00;103255.28;4992471;28;20031;-61
2023/01/22 04:13:23;;;;;;;13.30;10.73;;;;;;;-0.36;100.00;103201.00;4992553;28;20038;-59
2023/01/22 04:15:48;;;;;;;12.10;10.30;;;;;;;-0.16;100.00;103245.16;4974977;28;20041;-59
2023/01/22 04:18:15;;;;;;;14.75;9.80;;;;;;;0.02;100.00;103271.06;4975168;28;20105;-60
2023/01/22 04:20:41;;;;;;;12.85;10.18;;;;;;;-0.53;100.00;103174.31;4992281;28;20038;-60
2023/01/22 04:23:06;;;;;;;16.05;10.27;;;;;;;-0.11;100.00;103254.03;4992501;28;20118;-61
2023/01/22 04:25:32;;;;;;;13.80;10.43;;;;;;;-0.18;100.00;103244.22;4992284;28;20474;-59
2023/01/22 04:27:57;;;;;;;13.60;10.77;;;;;;;-0.10;100.00;103268.78;4974637;28;20150;-60
2023/01/22 04:30:23;;;;;;;11.35;9.73;;;;;;;-0.49;100.00;103207.25;4975052;28;20042;-59
2023/01/22 04:32:48;;;;;;;12.70;10.43;;;;;;;-0.12;100.00;103270.38;4992407;28;20030;-60
2023/01/22 04:35:13;;;;;;;11.35;10.10;;;;;;;-0.37;100.00;103219.91;4992274;28;20042;-60
2023/01/22 04:37:39;;;;;;;13.38;10.60;;;;;;;-0.48;100.00;103205.56;4991953;28;20038;-60
2023/01/22 04:40:05;;;;;;;12.20;10.00;;;;;;;-0.50;100.00;103210.66;4992332;28;20047;-60
2023/01/22 04:42:33;;;;;;;11.85;8.98;;;;;;;-0.24;100.00;103256.84;4992092;28;20077;-59
2023/01/22 04:44:58;;;;;;;12.52;10.05;;;;;;;-0.19;100.00;103265.72;4992454;28;20039;-60
2023/01/22 04:47:24;;;;;;;13.02;10.32;;;;;;;-0.27;100.00;103272.22;4978730;28;20129;-59
2023/01/22 04:49:49;;;;;;;15.10;10.15;;;;;;;-0.76;100.00;103190.38;4978207;28;20042;-60
2023/01/22 04:52:15;;;;;;;15.55;11.57;;;;;;;-0.41;100.00;103278.41;4996190;28;20030;-61
2023/01/22 04:54:40;;;;;;;12.48;10.10;;;;;;;-0.69;100.00;103228.63;4978283;28;20050;-60
2023/01/22 04:57:06;;;;;;;11.95;10.05;;;;;;;-0.79;100.00;103214.34;4978386;28;20037;-59
2023/01/22 04:59:31;;;;;;;14.30;10.55;;;;;;;-0.99;100.00;103175.38;4992941;28;20045;-60
2023/01/22 05:01:56;;;;;;;15.02;11.00;;;;;;;-0.57;100.00;103256.03;4993427;28;20061;-60
2023/01/22 05:04:22;;;;;;;12.70;9.45;;;;;;;-0.98;100.00;103198.69;4994901;28;20034;-60
2023/01/22 05:06:48;;;;;;;12.25;9.77;;;;;;;-0.66;100.00;103265.91;4995697;28;20039;-59
2023/01/22 05:09:14;;;;;;;13.13;10.40;;;;;;;-0.65;100.00;103265.09;4995892;28;20046;-59
2023/01/22 05:11:39;;;;;;;11.50;9.70;;;;;;;-0.72;100.00;103275.94;4994714;28;20130;-60
2023/01/22 05:14:05;;;;;;;15.52;11.38;;;;;;;-0.89;100.00;103250.88;4995440;28;20042;-60
2023/01/22 05:16:30;;;;;;;12.95;10.75;;;;;;;-1.26;100.00;103190.31;4996003;28;20489;-60
2023/01/22 05:18:55;;;;;;;11.45;10.23;;;;;;;-1.21;100.00;103209.53;4995587;28;20057;-60
2023/01/22 05:21:21;;;;;;;15.02;10.85;;;;;;;-0.85;100.00;103277.81;4977932;28;20045;-60
2023/01/22 05:23:46;;;;;;;16.05;10.38;;;;;;;-0.84;100.00;103261.47;4995462;28;20030;-59
2023/01/22 05:26:12;;;;;;;14.77;11.23;;;;;;;-0.78;100.00;103269.53;4995721;28;20092;-59
2023/01/22 05:28:37;;;;;;;13.20;10.10;;;;;;;-0.78;100.00;103266.94;4978056;28;20393;-61
2023/01/22 05:31:02;;;;;;;14.50;10.90;;;;;;;-0.75;100.00;103268.00;4995238;28;20130;-60
2023/01/22 05:33:28;;;;;;;14.57;10.88;;;;;;;-0.79;100.00;103276.41;4995177;28;20069;-60
2023/01/22 05:35:59;;;;;;;15.52;11.15;;;;;;;-1.40;100.00;103170.63;4995215;28;20034;-60
2023/01/22 05:38:24;;;;;;;16.73;10.93;;;;;;;-1.04;100.00;103231.09;4974581;28;20490;-60
2023/01/22 05:40:50;;;;;;;15.57;11.18;;;;;;;-0.80;100.00;103274.66;4975673;28;20050;-60
2023/01/22 05:43:16;;;;;;;19.23;11.45;;;;;;;-1.50;100.00;103127.03;4975785;28;20201;-60
2023/01/22 05:45:41;;;;;;;13.75;10.23;;;;;;;-1.22;100.00;103176.75;4974467;28;20533;-61
2023/01/22 05:48:06;;;;;;;14.68;10.55;;;;;;;-1.22;100.00;103179.31;4974726;28;20049;-59
2023/01/22 05:50:32;;;;;;;14.45;10.65;;;;;;;-0.76;100.00;103279.16;4974308;28;20121;-60
2023/01/22 05:52:57;;;;;;;13.20;10.88;;;;;;;-1.28;100.00;103192.81;4975649;28;20117;-60
2023/01/22 05:55:22;;;;;;;15.25;10.45;;;;;;;-1.30;100.00;103189.28;4975630;28;20035;-60
2023/01/22 05:57:48;;;;;;;13.75;10.63;;;;;;;-0.77;100.00;103277.41;4975080;28;20113;-59
2023/01/22 06:00:13;;;;;;;14.63;11.27;;;;;;;-1.12;100.00;103222.94;4975523;28;20121;-59
2023/01/22 06:02:39;;;;;;;13.00;10.65;;;;;;;-1.63;100.00;103133.22;4975385;28;20039;-61
2023/01/22 06:05:05;;;;;;;15.50;10.52;;;;;;;-1.41;100.00;103180.06;4974481;28;20035;-60
2023/01/22 06:07:30;;;;;;;13.57;11.27;;;;;;;-0.78;100.00;103290.22;4974137;28;20038;-61
2023/01/22 06:09:55;;;;;;;13.75;10.55;;;;;;;-0.72;100.00;103286.28;4973773;28;20135;-62
2023/01/22 06:12:21;;;;;;;12.95;10.05;;;;;;;-0.73;100.00;103284.47;4975247;28;20038;-61
2023/01/22 06:14:46;;;;;;;13.38;10.60;;;;;;;-0.70;100.00;103260.50;4957688;28;20035;-59
2023/01/22 06:17:12;;;;;;;13.00;10.70;;;;;;;-0.91;100.00;103224.06;4975154;28;20039;-61
2023/01/22 06:19:37;;;;;;;20.35;10.55;;;;;;;-0.48;100.00;103297.00;4975224;28;20392;-60
2023/01/22 06:22:03;;;;;;;14.38;11.15;;;;;;;-0.45;100.00;103291.09;4958035;28;20394;-60
2023/01/22 06:24:28;;;;;;;13.55;11.15;;;;;;;-0.43;100.00;103286.88;4973790;28;20034;-60
2023/01/22 06:26:53;;;;;;;13.25;10.85;;;;;;;-0.89;100.00;103206.94;4974855;28;20035;-59
2023/01/22 06:29:19;;;;;;;12.57;9.80;;;;;;;-0.99;100.00;103191.75;4974057;28;20400;-61
2023/01/22 06:31:44;;;;;;;14.38;10.15;;;;;;;-0.43;100.00;103294.63;4975337;28;20512;-60
2023/01/22 06:34:09;;;;;;;14.10;11.77;;;;;;;-0.44;100.00;103288.59;4974695;28;20041;-60
2023/01/22 06:36:35;;;;;;;15.18;11.32;;;;;;;-0.91;100.00;103203.41;4975311;28;20061;-61
2023/01/22 06:39:00;;;;;;;13.70;11.60;;;;;;;-0.44;100.00;103272.19;4971427;28;20081;-60
2023/01/22 06:41:26;;;;;;;13.27;10.00;;;;;;;-0.30;100.00;103282.41;4974869;28;20053;-60
2023/01/22 06:43:51;;;;;;;13.73;10.00;;;;;;;-0.23;100.00;103296.53;4974522;28;20109;-60
2023/01/22 06:46:16;;;;;;;12.95;10.40;;;;;;;-0.19;100.00;103289.03;4975069;28;20038;-60
2023/01/22 06:48:45;;;;;;;14.82;10.35;;;;;;;-0.66;100.00;103205.53;4957259;28;20081;-59
2023/01/22 06:51:11;;;;;;;12.43;9.85;;;;;;;-0.54;100.00;103225.94;4974581;28;20038;-61
2023/01/22 06:53:36;;;;;;;14.95;10.00;;;;;;;-0.59;100.00;103199.84;4974445;28;20089;-61
2023/01/22 06:56:02;;;;;;;12.65;10.23;;;;;;;-0.44;100.00;103210.97;4974362;28;20093;-61
2023/01/22 06:58:27;;;;;;;11.43;9.13;;;;;;;-0.08;100.00;103284.38;4974392;28;20026;-59
2023/01/22 07:00:53;;;;;;;12.75;9.98;;;;;;;-0.09;100.00;103278.28;4974073;28;20134;-59
2023/01/22 07:03:18;;;;;;;13.50;9.80;;;;;;;-0.33;100.00;103221.84;4974454;28;20031;-60
2023/01/22 07:05:44;;;;;;;14.38;9.23;;;;;;;-0.39;100.00;103211.19;4973144;28;20536;-60
2023/01/22 07:08:13;;;;;;;10.10;8.30;;;;;;;0.07;100.00;103290.31;4974193;28;20109;-61
2023/01/22 07:10:38;;;;;;;10.07;7.75;;;;;;;-0.38;100.00;103205.22;4972837;28;20039;-60
2023/01/22 07:13:03;;;;;;;12.23;8.60;;;;;;;0.08;100.00;103284.31;4974181;28;20039;-61
2023/01/22 07:15:29;;;;;;;14.18;7.30;;;;;;;-0.24;100.00;103222.31;4974300;28;20399;-60
2023/01/22 07:17:54;;;;;;;9.50;7.15;;;;;;;0.14;100.00;103291.50;4974232;28;20042;-60
2023/01/22 07:20:21;;;;;;;11.82;6.80;;;;;;;0.03;100.00;103266.78;4974067;28;20050;-62
2023/01/22 07:22:46;;;;;;;11.05;6.70;;;;;;;0.22;100.00;103292.75;4972834;28;20035;-61
2023/01/22 07:25:11;;;;;;;8.35;6.38;;;;;;;0.01;100.00;103245.97;4974017;28;20035;-60
2023/01/22 07:27:37;;;;;;;11.48;6.65;;;;;;;-0.15;100.00;103217.59;4973522;28;20038;-60
2023/01/22 07:30:04;;;;;;;8.70;6.63;;;;;;;0.20;100.00;103282.34;4974132;28;20438;-60
2023/01/22 07:32:29;;;;;;;9.27;5.97;;;;;;;0.19;100.00;103279.66;4973770;28;20426;-61
2023/01/22 07:34:54;;;;;;;11.35;6.18;;;;;;;-0.19;100.00;103208.78;4973619;28;20121;-59
2023/01/22 07:37:20;;;;;;;7.93;6.25;;;;;;;-0.17;100.00;103216.59;4973531;28;20093;-61
2023/01/22 07:39:45;;;;;;;8.07;6.30;;;;;;;0.29;100.00;103321.59;4988439;28;20471;-61
2023/01/22 07:42:11;;;;;;;9.38;7.20;;;;;;;0.32;100.00;103311.41;4993067;28;20528;-61
2023/01/22 07:44:39;;;;;;;8.43;6.53;;;;;;;0.35;100.00;103318.47;4975555;28;20038;-61
2023/01/22 07:47:04;;;;;;;9.38;6.40;;;;;;;0.27;100.00;103307.69;4992841;28;20104;-63
2023/01/22 07:49:30;;;;;;;14.30;6.65;;;;;;;-0.14;100.00;103242.63;4975204;28;20425;-61
2023/01/22 07:51:55;;;;;;;11.48;6.25;;;;;;;0.27;100.00;103318.06;4975257;28;20046;-60
2023/01/22 07:54:20;;;;;;;11.07;6.53;;;;;;;0.30;100.00;103317.31;4992619;28;20088;-59
2023/01/22 07:56:46;;;;;;;10.05;5.68;;;;;;;0.23;100.00;103317.84;4975228;28;20541;-60
2023/01/22 07:59:11;;;;;;;7.07;6.13;;;;;;;0.38;100.00;103336.75;4992823;28;20347;-60
2023/01/22 08:01:36;;;;;;;8.75;6.10;;;;;;;0.37;100.00;103334.94;4992512;28;20038;-61
2023/01/22 08:04:02;;;;;;;8.98;6.68;;;;;;;-0.15;100.00;103246.94;4975038;28;20399;-60
2023/01/22 08:06:27;;;;;;;9.00;6.22;;;;;;;0.38;100.00;103337.59;4992694;28;20481;-61
2023/01/22 08:08:53;;;;;;;8.43;6.70;;;;;;;0.41;100.00;103336.84;4992317;28;20038;-60
2023/01/22 08:11:18;;;;;;;11.73;6.38;;;;;;;0.44;100.00;103352.56;4992373;28;20039;-64
2023/01/22 08:13:43;;;;;;;8.38;5.68;;;;;;;0.42;100.00;103334.34;4992199;28;20483;-57
2023/01/22 08:16:09;;;;;;;9.77;5.80;;;;;;;0.31;100.00;103312.22;4992678;28;20113;-61
2023/01/22 08:18:35;;;;;;;11.13;6.55;;;;;;;0.15;100.00;103281.19;4992524;28;20035;-60
2023/01/22 08:21:01;;;;;;;10.27;5.82;;;;;;;-0.29;100.00;103206.53;4974138;28;20038;-60
2023/01/22 08:23:26;;;;;;;7.78;6.13;;;;;;;0.09;100.00;103265.38;4974895;28;20096;-60
2023/01/22 08:25:52;;;;;;;9.23;6.07;;;;;;;0.49;100.00;103345.91;4958737;28;20041;-60
2023/01/22 08:28:17;;;;;;;9.10;6.07;;;;;;;0.43;100.00;103330.97;4992555;28;20480;-59
2023/01/22 08:30:42;;;;;;;9.45;5.85;;;;;;;0.55;100.00;103343.63;4992301;28;20038;-60
2023/01/22 08:33:09;;;;;;;9.25;5.93;;;;;;;0.45;100.00;103331.03;4992098;28;20113;-60
2023/01/22 08:35:37;;;;;;;9.48;5.93;;;;;;;0.39;100.00;103318.66;4992303;28;20474;-59
2023/01/22 08:38:02;;;;;;;9.73;6.43;;;;;;;0.58;100.00;103346.38;4991908;28;20042;-59
2023/01/22 08:40:28;;;;;;;8.85;5.68;;;;;;;0.61;100.00;103351.69;4991782;28;20057;-61
2023/01/22 08:42:53;;;;;;;8.90;5.93;;;;;;;0.52;100.00;103331.41;4992237;28;20050;-59
2023/01/22 08:45:19;;;;;;;11.35;6.93;;;;;;;0.62;100.00;103350.84;4974534;28;20041;-59
2023/01/22 08:47:44;;;;;;;8.40;6.10;;;;;;;0.15;100.00;103272.53;4992042;28;20038;-59
2023/01/22 08:50:10;;;;;;;10.07;5.95;;;;;;;0.65;100.00;103376.03;4992083;28;20046;-59
2023/01/22 08:52:35;;;;;;;9.05;6.53;;;;;;;0.46;100.00;103322.44;4992117;28;20397;-60
2023/01/22 08:55:01;;;;;;;11.25;6.93;;;;;;;0.61;100.00;103348.22;4992064;28;20038;-61
2023/01/22 08:57:26;;;;;;;12.63;6.85;;;;;;;0.65;100.00;103363.06;4991922;28;20042;-61
2023/01/22 08:59:51;;;;;;;8.68;5.75;;;;;;;0.63;100.00;103369.91;4991267;28;20040;-61
2023/01/22 09:02:17;;;;;;;11.05;7.03;;;;;;;0.31;100.00;103312.22;4992067;28;20070;-59
2023/01/22 09:04:42;;;;;;;10.65;6.05;;;;;;;0.52;100.00;103340.88;4990676;28;20033;-60
2023/01/22 09:07:09;;;;;;;7.13;5.32;;;;;;;0.65;100.00;103366.56;4974326;28;20041;-58
2023/01/22 09:09:36;;;;;;;8.57;6.60;;;;;;;0.66;100.00;103360.56;4991209;28;20063;-59
2023/01/22 09:12:02;;;;;;;10.57;6.45;;;;;;;0.57;100.00;103342.88;4982532;23;20059;-60
2023/01/22 09:14:27;;;;;;;8.05;6.18;;;;;;;0.17;100.00;103276.13;4953164;28;20554;-59
2023/01/22 09:16:52;;;;;;;8.88;6.30;;;;;;;0.24;100.00;103281.66;4951347;29;20039;-60
2023/01/22 09:19:18;;;;;;;9.77;5.72;;;;;;;0.63;100.00;103351.75;4953251;28;20050;-59
2023/01/22 09:21:43;;;;;;;7.18;6.05;;;;;;;0.71;100.00;103364.25;4951984;29;20035;-59
2023/01/22 09:24:09;;;;;;;8.45;6.20;;;;;;;0.58;100.00;103360.19;4952996;28;20122;-60
2023/01/22 09:26:35;;;;;;;20.42;6.22;;;;;;;0.26;100.00;103295.59;4935151;29;20094;-60
2023/01/22 09:29:04;;;;;;;9.18;6.18;;;;;;;0.38;100.00;103301.34;4953102;28;20035;-59
2023/01/22 09:31:31;;;;;;;8.68;6.05;;;;;;;0.64;100.00;103350.94;4953056;28;20035;-59
2023/01/22 09:33:56;;;;;;;8.80;6.45;;;;;;;0.35;100.00;103290.81;4971076;28;20126;-59
2023/01/22 09:36:22;;;;;;;8.48;6.28;;;;;;;0.19;100.00;103259.81;4956258;28;20047;-59
2023/01/22 09:38:47;;;;;;;8.05;5.70;;;;;;;0.88;100.00;103370.22;4956476;28;20039;-60
2023/01/22 09:41:18;;;;;;;7.60;5.13;;;;;;;0.48;100.00;103303.56;4956875;28;20121;-58
2023/01/22 09:43:54;;;;;;;11.82;5.72;;;;;;;0.92;100.00;103396.41;4956436;28;20364;-60
2023/01/22 09:46:50;;;;;;;9.57;5.90;;;;;;;0.94;100.00;103386.97;4938647;29;20028;-60
2023/01/22 09:49:22;;;;;;;9.25;6.25;;;;;;;0.50;100.00;103298.44;4953105;29;20046;-59
2023/01/22 09:51:54;;;;;;;9.80;5.82;;;;;;;0.97;100.00;103401.78;4956220;28;20110;-59
2023/01/22 09:54:19;;;;;;;7.35;6.43;;;;;;;0.88;100.00;103367.63;4939184;29;20047;-58
2023/01/22 09:56:50;;;;;;;8.57;5.60;;;;;;;0.79;100.00;103362.06;4954649;29;20158;-58
2023/01/22 09:59:25;;;;;;;10.45;6.57;;;;;;;0.44;100.00;103298.13;4955015;29;20487;-60
2023/01/22 10:01:56;;;;;;;11.18;6.30;;;;;;;1.04;100.00;103411.66;4955657;28;20043;-60
2023/01/22 10:04:28;;;;;;;;;;;;;;;1.05;100.00;103398.75;4971281;28;20039;-61
2023/01/22 10:06:55;;;;;;;7.20;5.88;;;;;;;0.65;100.00;103340.63;4955792;28;19914;-59
2023/01/22 10:09:21;;;;;;;12.63;6.63;;;;;;;1.05;100.00;103401.34;4955407;28;20060;-60
2023/01/22 10:11:52;;;;;;;7.95;5.65;;;;;;;1.09;100.00;103397.19;4955197;28;20157;-61
2023/01/22 10:14:17;;;;;;;;;;;;;;;1.16;100.00;103394.06;4954539;28;20054;-59
2023/01/22 10:16:44;;;;;;;7.57;5.30;;;;;;;1.17;100.00;103392.38;4953954;29;19994;-59
2023/01/22 10:19:30;;;;;;;7.20;5.43;;;;;;;1.07;100.00;103378.06;4955657;28;20479;-56
2023/01/22 10:21:59;;;;;;;10.50;6.88;;;;;;;1.17;100.00;103380.25;4938444;29;20090;-58
2023/01/22 10:24:25;;;;;;;7.30;5.55;;;;;;;1.20;100.00;103395.09;4954144;29;20106;-58
2023/01/22 10:26:53;;;;;;;8.25;5.85;;;;;;;1.23;100.00;103385.75;4954836;28;20035;-58
2023/01/22 10:29:24;;;;;;;8.20;6.57;;;;;;;1.28;100.00;103399.84;4955187;28;20035;-59
2023/01/22 10:31:55;;;;;;;9.13;6.32;;;;;;;1.35;100.00;103393.19;4955257;28;20482;-58
2023/01/22 10:34:29;;;;;;;6.88;5.57;;;;;;;1.43;100.00;103395.31;4953832;29;20504;-60
2023/01/22 10:36:55;;;;;;;10.40;6.38;;;;;;;1.47;100.00;103391.16;4953496;29;20065;-57
2023/01/22 10:39:20;;;;;;;7.22;5.07;;;;;;;1.46;100.00;103363.44;4953896;29;20043;-56
2023/01/22 10:41:47;;;;;;;5.90;5.07;;;;;;;1.51;100.00;103370.63;4955255;28;20090;-57
2023/01/22 10:44:22;;;;;;;9.50;5.68;;;;;;;1.75;100.00;103389.00;4954407;28;20027;-56
2023/01/22 10:46:49;;;;;;;6.10;5.40;;;;;;;1.79;100.00;103396.06;4953480;29;20031;-57
2023/01/22 10:49:20;;;;;;;13.00;6.18;;;;;;;1.45;100.00;103325.31;4953529;29;20171;-58
2023/01/22 10:51:53;;;;;;;9.48;6.90;;;;;;;1.54;100.00;103344.78;4954944;28;20082;-56
2023/01/22 10:54:24;;;;;;;9.20;5.68;;;;;;;1.84;100.00;103399.75;4939247;28;20036;-55
2023/01/22 10:56:49;;;;;;;;;;;;;;;1.87;100.00;103380.84;4935702;29;20111;-57
2023/01/22 10:59:28;;;;;;;9.98;5.80;;;;;;;1.75;100.00;103372.53;4935104;29;20421;-57
2023/01/22 11:02:09;;;;;;;11.15;6.65;;;;;;;1.69;100.00;103386.13;4935325;29;20035;-58
2023/01/22 11:04:35;;;;;;;6.57;5.68;;;;;;;1.37;100.00;103306.81;4934234;29;20373;-59
2023/01/22 11:07:13;;;;;;;9.98;5.90;;;;;;;1.77;100.00;103374.34;4934341;29;20038;-57
2023/01/22 11:09:50;;;;;;;9.30;6.18;;;;;;;1.82;100.00;103357.25;4935935;29;20040;-55
2023/01/22 11:12:31;;;;;;;6.90;6.03;;;;;;;1.60;100.00;103306.13;4935092;29;20058;-58
2023/01/22 11:15:20;;;;;;;6.45;5.80;;;;;;;1.93;100.00;103369.00;4934439;29;20410;-57